createdAt,value
2023-04-02T00:01:40.794Z,29.30
2023-04-02T00:04:29.905Z,29.30
2023-04-02T00:07:11.735Z,29.30
2023-04-02T00:09:43.049Z,29.30
2023-04-02T00:12:19.392Z,29.40
2023-04-02T00:14:56.009Z,29.40
2023-04-02T00:17:26.631Z,29.40
2023-04-02T00:20:09.299Z,29.40
2023-04-02T00:22:42.952Z,29.40
2023-04-02T00:25:16.302Z,29.50
2023-04-02T00:27:47.790Z,29.50
2023-04-02T00:30:19.974Z,29.50
2023-04-02T00:32:51.477Z,29.60
2023-04-02T00:35:30.976Z,29.60
2023-04-02T00:38:02.462Z,29.60
2023-04-02T00:40:34.921Z,29.60
2023-04-02T00:43:07.381Z,29.60
2023-04-02T00:45:40.882Z,29.60
2023-04-02T00:48:26.398Z,29.60
2023-04-02T00:50:58.921Z,29.60
2023-04-02T00:53:32.124Z,29.60
2023-04-02T00:56:05.635Z,29.60
2023-04-02T00:58:39.138Z,29.60
2023-04-02T01:01:18.939Z,29.70
2023-04-02T01:04:04.425Z,29.70
2023-04-02T01:06:42.188Z,29.80
2023-04-02T01:09:21.609Z,29.80
2023-04-02T01:12:16.035Z,29.90
2023-04-02T01:15:02.176Z,30.00
2023-04-02T01:17:51.015Z,30.00
2023-04-02T01:20:52.073Z,30.00
2023-04-02T01:23:35.808Z,30.10
2023-04-02T01:26:24.785Z,30.10
2023-04-02T01:29:04.387Z,30.10
2023-04-02T01:31:37.232Z,30.20
2023-04-02T01:34:13.675Z,30.20
2023-04-02T01:36:47.107Z,30.30
2023-04-02T01:39:32.573Z,30.40
2023-04-02T01:42:24.440Z,30.40
2023-04-02T01:44:57.548Z,30.50
2023-04-02T01:47:30.936Z,30.50
2023-04-02T01:50:04.888Z,30.60
2023-04-02T01:52:44.643Z,30.70
2023-04-02T01:55:17.613Z,30.80
2023-04-02T01:57:51.132Z,30.80
2023-04-02T02:00:23.617Z,30.90
2023-04-02T02:02:55.201Z,31.00
2023-04-02T02:05:26.714Z,31.00
2023-04-02T02:07:59.419Z,31.10
2023-04-02T02:10:38.988Z,31.10
2023-04-02T02:13:11.167Z,31.20
2023-04-02T02:15:43.068Z,31.30
2023-04-02T02:18:15.464Z,31.30
2023-04-02T02:20:46.894Z,31.40
2023-04-02T02:23:18.788Z,31.50
2023-04-02T02:25:50.205Z,31.60
2023-04-02T02:28:29.192Z,31.70
2023-04-02T02:31:11.330Z,31.70
2023-04-02T02:33:48.256Z,31.90
2023-04-02T02:36:43.128Z,32.00
2023-04-02T02:39:29.281Z,32.00
2023-04-02T02:42:22.270Z,32.20
2023-04-02T02:44:55.025Z,32.30
2023-04-02T02:47:31.016Z,32.40
2023-04-02T02:50:04.668Z,32.40
2023-04-02T02:52:40.356Z,32.50
2023-04-02T02:55:16.968Z,32.60
2023-04-02T02:57:53.048Z,32.70
2023-04-02T03:00:25.793Z,32.80
2023-04-02T03:02:59.261Z,32.90
2023-04-02T03:05:32.605Z,33.00
2023-04-02T03:08:05.158Z,33.00
2023-04-02T03:10:44.802Z,33.20
2023-04-02T03:13:36.697Z,33.20
2023-04-02T03:16:16.353Z,33.40
2023-04-02T03:18:49.860Z,33.50
2023-04-02T03:21:23.466Z,33.70
2023-04-02T03:24:06.136Z,33.70
2023-04-02T03:26:48.816Z,33.70
2023-04-02T03:29:34.529Z,33.80
2023-04-02T03:32:16.611Z,33.90
2023-04-02T03:34:55.443Z,34.00
2023-04-02T03:37:44.126Z,34.10
2023-04-02T03:40:32.784Z,34.10
2023-04-02T03:43:09.641Z,34.20
2023-04-02T03:45:45.824Z,34.30
2023-04-02T03:48:28.457Z,34.40
2023-04-02T03:51:05.321Z,34.50
2023-04-02T03:53:36.975Z,34.70
2023-04-02T03:56:08.989Z,34.70
2023-04-02T03:58:45.386Z,34.70
2023-04-02T04:01:30.627Z,34.70
2023-04-02T04:04:09.933Z,34.70
2023-04-02T04:06:43.950Z,34.80
2023-04-02T04:09:26.643Z,34.80
2023-04-02T04:14:48.830Z,35.00
2023-04-02T04:17:29.818Z,35.00
2023-04-02T04:20:24.558Z,35.10
2023-04-02T04:22:56.769Z,35.20
2023-04-02T04:25:34.377Z,35.20
2023-04-02T04:28:11.722Z,35.20
2023-04-02T04:31:03.259Z,35.30
2023-04-02T04:33:42.666Z,35.40
2023-04-02T04:36:22.922Z,35.40
2023-04-02T04:38:56.024Z,35.40
2023-04-02T04:41:30.498Z,35.40
2023-04-02T04:44:19.003Z,35.50
2023-04-02T04:47:07.505Z,35.50
2023-04-02T04:49:47.014Z,35.60
2023-04-02T04:52:23.492Z,35.70
2023-04-02T04:54:55.098Z,35.80
2023-04-02T04:57:37.528Z,35.80
2023-04-02T05:00:14.572Z,35.90
2023-04-02T05:02:51.130Z,36.00
2023-04-02T05:05:24.878Z,36.00
2023-04-02T05:08:01.544Z,36.00
2023-04-02T05:10:47.014Z,36.00
2023-04-02T05:13:29.486Z,36.00
2023-04-02T05:16:21.701Z,36.00
2023-04-02T05:19:20.724Z,36.10
2023-04-02T05:21:54.407Z,36.10
2023-04-02T05:24:34.211Z,36.10
2023-04-02T05:27:10.234Z,36.10
2023-04-02T05:29:43.981Z,36.10
2023-04-02T05:32:17.514Z,36.10
2023-04-02T05:34:51.091Z,36.10
2023-04-02T05:37:25.278Z,36.20
2023-04-02T05:40:02.353Z,36.20
2023-04-02T05:42:35.749Z,36.30
2023-04-02T05:45:24.450Z,36.40
2023-04-02T05:47:59.178Z,36.40
2023-04-02T05:50:32.870Z,36.50
2023-04-02T05:53:14.935Z,36.50
2023-04-02T05:56:00.725Z,36.40
2023-04-02T05:58:37.304Z,36.50
2023-04-02T06:01:19.883Z,36.50
2023-04-02T06:04:02.336Z,36.50
2023-04-02T06:06:44.688Z,36.50
2023-04-02T06:09:18.439Z,36.60
2023-04-02T06:11:52.260Z,36.60
2023-04-02T06:14:23.497Z,36.70
2023-04-02T06:16:55.689Z,36.60
2023-04-02T06:19:29.118Z,36.70
2023-04-02T06:22:05.330Z,36.70
2023-04-02T06:24:36.509Z,36.70
2023-04-02T06:27:09.338Z,36.80
2023-04-02T06:29:42.672Z,36.80
2023-04-02T06:32:15.476Z,36.80
2023-04-02T06:34:47.128Z,36.80
2023-04-02T06:37:38.770Z,36.80
2023-04-02T06:40:30.963Z,36.80
2023-04-02T06:43:04.401Z,36.80
2023-04-02T06:45:39.334Z,36.80
2023-04-02T06:48:13.300Z,36.80
2023-04-02T06:50:59.038Z,36.80
2023-04-02T06:53:35.114Z,36.90
2023-04-02T06:56:11.928Z,36.90
2023-04-02T07:01:46.337Z,36.80
2023-04-02T07:04:18.093Z,36.70
2023-04-02T07:06:49.099Z,36.70
2023-04-02T07:09:20.735Z,36.80
2023-04-02T07:11:52.218Z,36.70
2023-04-02T07:14:23.304Z,36.80
2023-04-02T07:16:54.788Z,36.80
2023-04-02T07:19:26.242Z,36.90
2023-04-02T07:21:57.212Z,36.80
2023-04-02T07:24:28.526Z,36.90
2023-04-02T07:26:59.660Z,36.90
2023-04-02T07:29:30.709Z,36.90
2023-04-02T07:32:01.863Z,37.00
2023-04-02T07:34:33.104Z,37.00
2023-04-02T07:37:08.256Z,36.90
2023-04-02T07:39:40.250Z,36.90
2023-04-02T07:42:11.838Z,36.80
2023-04-02T07:44:43.070Z,36.70
2023-04-02T07:47:14.438Z,36.70
2023-04-02T07:49:45.781Z,36.70
2023-04-02T07:52:17.055Z,36.60
2023-04-02T07:54:48.427Z,36.60
2023-04-02T07:57:19.736Z,36.70
2023-04-02T07:59:51.831Z,36.80
2023-04-02T08:02:23.882Z,36.80
2023-04-02T08:04:55.037Z,36.80
2023-04-02T08:07:25.914Z,36.80
2023-04-02T08:09:57.182Z,36.80
2023-04-02T08:12:28.121Z,36.90
2023-04-02T08:14:59.612Z,36.90
2023-04-02T08:17:33.956Z,36.80
2023-04-02T08:20:06.625Z,36.80
2023-04-02T08:22:39.362Z,36.80
2023-04-02T08:25:12.187Z,36.70
2023-04-02T08:27:43.564Z,36.70
2023-04-02T08:30:17.119Z,36.70
2023-04-02T08:32:50.105Z,36.60
2023-04-02T08:35:21.358Z,36.50
2023-04-02T08:37:52.674Z,36.50
2023-04-02T08:40:29.251Z,36.50
2023-04-02T08:43:24.159Z,36.40
2023-04-02T08:46:00.462Z,36.40
2023-04-02T08:48:34.228Z,36.40
2023-04-02T08:51:07.472Z,36.30
2023-04-02T08:53:41.043Z,36.30
2023-04-02T08:56:21.832Z,36.20
2023-04-02T08:58:58.991Z,36.20
2023-04-02T09:01:44.694Z,36.10
2023-04-02T09:04:18.269Z,36.10
2023-04-02T09:06:50.084Z,36.10
2023-04-02T09:09:21.850Z,36.00
2023-04-02T09:12:00.094Z,36.00
2023-04-02T09:14:48.985Z,35.90
2023-04-02T09:17:25.550Z,35.90
2023-04-02T09:20:01.732Z,35.80
2023-04-02T09:22:32.689Z,35.80
2023-04-02T09:25:06.170Z,35.80
2023-04-02T09:27:38.987Z,35.80
2023-04-02T09:30:45.905Z,35.80
2023-04-02T09:33:17.130Z,35.90
2023-04-02T09:35:59.250Z,35.90
2023-04-02T09:38:33.180Z,35.90
2023-04-02T09:41:12.788Z,35.90
2023-04-02T09:43:43.953Z,35.90
2023-04-02T09:46:26.922Z,35.90
2023-04-02T09:49:01.913Z,35.90
2023-04-02T09:51:35.943Z,35.90
2023-04-02T09:54:09.803Z,35.90
2023-04-02T09:56:42.399Z,35.90
2023-04-02T09:59:19.154Z,35.90
2023-04-02T10:02:04.884Z,35.90
2023-04-02T10:04:51.089Z,35.90
2023-04-02T10:07:44.018Z,35.90
2023-04-02T10:10:25.094Z,35.90
2023-04-02T10:13:04.400Z,35.90
2023-04-02T10:15:47.214Z,35.80
2023-04-02T10:18:45.283Z,35.90
2023-04-02T10:21:18.817Z,35.80
2023-04-02T10:23:50.368Z,35.80
2023-04-02T10:26:32.742Z,35.80
2023-04-02T10:29:08.931Z,35.70
2023-04-02T10:31:51.987Z,35.70
2023-04-02T10:34:37.545Z,35.70
2023-04-02T10:37:30.679Z,35.60
2023-04-02T10:40:13.097Z,35.60
2023-04-02T10:42:58.795Z,35.60
2023-04-02T10:45:53.207Z,35.60
2023-04-02T10:48:26.728Z,35.50
2023-04-02T10:51:00.113Z,35.50
2023-04-02T10:53:33.436Z,35.50
2023-04-02T10:56:08.158Z,35.50
2023-04-02T10:58:41.837Z,35.40
2023-04-02T11:01:21.343Z,35.40
2023-04-02T11:03:58.112Z,35.30
2023-04-02T11:06:31.203Z,35.30
2023-04-02T11:09:06.268Z,35.30
2023-04-02T11:11:47.739Z,35.30
2023-04-02T11:14:21.120Z,35.30
2023-04-02T11:16:57.490Z,35.20
2023-04-02T11:19:33.849Z,35.20
2023-04-02T11:22:22.577Z,35.20
2023-04-02T11:24:59.170Z,35.10
2023-04-02T11:27:37.765Z,35.10
2023-04-02T11:33:36.660Z,35.00
2023-04-02T11:36:03.379Z,35.00
2023-04-02T11:38:52.520Z,35.00
2023-04-02T11:41:32.365Z,34.90
2023-04-02T11:44:04.374Z,34.90
2023-04-02T11:46:42.653Z,34.90
2023-04-02T11:49:37.572Z,34.90
2023-04-02T11:52:12.272Z,34.90
2023-04-02T11:54:42.953Z,34.80
2023-04-02T11:57:22.274Z,34.80
2023-04-02T12:00:06.043Z,34.70
2023-04-02T12:02:39.692Z,34.60
2023-04-02T12:05:25.388Z,34.50
2023-04-02T12:08:18.600Z,34.30
2023-04-02T12:11:03.697Z,34.20
2023-04-02T12:13:46.345Z,34.10
2023-04-02T12:16:27.849Z,34.00
2023-04-02T12:18:59.616Z,33.90
2023-04-02T12:21:32.566Z,33.90
2023-04-02T12:24:05.066Z,33.80
2023-04-02T12:26:47.860Z,33.80
2023-04-02T12:29:21.454Z,33.70
2023-04-02T12:31:52.859Z,33.70
2023-04-02T12:34:25.760Z,33.60
2023-04-02T12:37:03.780Z,33.60
2023-04-02T12:39:36.070Z,33.60
2023-04-02T12:42:07.302Z,33.50
2023-04-02T12:44:38.576Z,33.50
2023-04-02T12:47:19.210Z,33.40
2023-04-02T12:49:50.949Z,33.30
2023-04-02T12:52:24.582Z,33.30
2023-04-02T12:55:04.408Z,33.30
2023-04-02T12:57:40.415Z,33.20
2023-04-02T13:00:28.623Z,33.20
2023-04-02T13:03:14.112Z,33.20
2023-04-02T13:05:47.701Z,33.20
2023-04-02T13:08:27.493Z,33.20
2023-04-02T13:11:06.500Z,33.20
2023-04-02T13:13:40.337Z,33.10
2023-04-02T13:16:32.117Z,33.10
2023-04-02T13:19:24.346Z,33.10
2023-04-02T13:21:56.278Z,33.10
2023-04-02T13:24:29.634Z,33.10
2023-04-02T13:27:02.730Z,33.10
2023-04-02T13:29:35.838Z,33.10
2023-04-02T13:32:09.585Z,33.10
2023-04-02T13:34:40.520Z,33.10
2023-04-02T13:37:13.646Z,33.00
2023-04-02T13:39:44.391Z,33.00
2023-04-02T13:42:15.305Z,32.90
2023-04-02T13:44:47.756Z,32.90
2023-04-02T13:47:18.605Z,32.90
2023-04-02T13:49:49.567Z,32.90
2023-04-02T13:52:20.432Z,32.80
2023-04-02T13:54:54.287Z,32.80
2023-04-02T13:57:25.238Z,32.70
2023-04-02T13:59:56.622Z,32.70
2023-04-02T14:02:28.626Z,32.60
2023-04-02T14:05:07.902Z,32.60
2023-04-02T14:07:56.379Z,32.60
2023-04-02T14:10:48.001Z,32.50
2023-04-02T14:13:30.285Z,32.40
2023-04-02T14:16:29.339Z,32.40
2023-04-02T14:19:02.999Z,32.40
2023-04-02T14:21:39.042Z,32.40
2023-04-02T14:24:30.863Z,32.30
2023-04-02T14:27:22.630Z,32.30
2023-04-02T14:30:05.035Z,32.20
2023-04-02T14:32:47.709Z,32.20
2023-04-02T14:35:27.560Z,32.20
2023-04-02T14:38:09.772Z,32.20
2023-04-02T14:40:52.946Z,32.10
2023-04-02T14:43:26.678Z,32.20
2023-04-02T14:46:06.380Z,32.10
2023-04-02T14:48:56.716Z,32.10
2023-04-02T14:51:45.577Z,32.10
2023-04-02T14:54:21.863Z,32.00
2023-04-02T14:57:11.426Z,32.10
2023-04-02T15:00:14.639Z,32.00
2023-04-02T15:02:51.045Z,32.00
2023-04-02T15:05:24.954Z,32.00
2023-04-02T15:08:04.522Z,32.00
2023-04-02T15:10:38.218Z,32.10
2023-04-02T15:13:11.796Z,32.00
2023-04-02T15:15:57.745Z,31.90
2023-04-02T15:18:29.158Z,31.90
2023-04-02T15:21:28.698Z,32.00
2023-04-02T15:24:26.598Z,32.00
2023-04-02T15:27:11.945Z,32.00
2023-04-02T15:29:43.793Z,32.00
2023-04-02T15:32:23.183Z,32.00
2023-04-02T15:34:59.510Z,32.00
2023-04-02T15:37:33.326Z,32.00
2023-04-02T15:40:24.734Z,32.00
2023-04-02T15:43:00.978Z,32.00
2023-04-02T15:45:46.292Z,32.00
2023-04-02T15:48:25.672Z,32.00
2023-04-02T15:51:08.183Z,31.90
2023-04-02T15:53:59.450Z,31.80
2023-04-02T15:56:49.134Z,31.80
2023-04-02T15:59:44.005Z,31.80
2023-04-02T16:02:43.234Z,31.80
2023-04-02T16:08:44.975Z,31.70
2023-04-02T16:11:20.588Z,31.70
2023-04-02T16:14:04.215Z,31.60
2023-04-02T16:16:38.078Z,31.60
2023-04-02T16:19:31.376Z,31.60
2023-04-02T16:22:05.062Z,31.60
2023-04-02T16:24:51.962Z,31.60
2023-04-02T16:27:31.331Z,31.60
2023-04-02T16:30:05.035Z,31.50
2023-04-02T16:32:57.021Z,31.50
2023-04-02T16:35:43.276Z,31.40
2023-04-02T16:38:27.805Z,31.40
2023-04-02T16:41:09.111Z,31.40
2023-04-02T16:43:51.483Z,31.40
2023-04-02T16:46:58.161Z,31.30
2023-04-02T16:49:40.616Z,31.30
2023-04-02T16:52:35.017Z,31.20
2023-04-02T16:55:33.559Z,31.10
2023-04-02T16:58:07.116Z,31.10
2023-04-02T17:00:53.967Z,31.10
2023-04-02T17:03:52.053Z,31.10
2023-04-02T17:06:34.646Z,31.10
2023-04-02T17:09:24.533Z,31.10
2023-04-02T17:12:03.829Z,31.10
2023-04-02T17:14:43.433Z,31.10
2023-04-02T17:17:21.086Z,31.10
2023-04-02T17:19:53.759Z,31.10
2023-04-02T17:22:26.127Z,31.10
2023-04-02T17:25:05.702Z,31.10
2023-04-02T17:27:42.225Z,31.10
2023-04-02T17:30:29.940Z,31.00
2023-04-02T17:33:01.206Z,31.00
2023-04-02T17:35:37.401Z,31.00
2023-04-02T17:38:17.356Z,31.00
2023-04-02T17:40:55.269Z,30.90
2023-04-02T17:43:34.726Z,30.90
2023-04-02T17:46:18.218Z,30.80
2023-04-02T17:48:53.614Z,30.80
2023-04-02T17:51:35.444Z,30.80
2023-04-02T17:54:28.435Z,30.80
2023-04-02T17:57:22.526Z,30.80
2023-04-02T17:59:59.407Z,30.80
2023-04-02T18:02:49.497Z,30.70
2023-04-02T18:05:27.208Z,30.70
2023-04-02T18:08:09.544Z,30.80
2023-04-02T18:10:49.864Z,30.80
2023-04-02T18:13:31.103Z,30.70
2023-04-02T18:16:19.885Z,30.60
2023-04-02T18:19:11.869Z,30.60
2023-04-02T18:21:45.428Z,30.60
2023-04-02T18:24:24.804Z,30.60
2023-04-02T18:27:11.068Z,30.60
2023-04-02T18:30:02.773Z,30.60
2023-04-02T18:32:55.729Z,30.60
2023-04-02T18:35:38.430Z,30.50
2023-04-02T18:38:27.007Z,30.50
2023-04-02T18:41:35.506Z,30.50
2023-04-02T18:44:30.746Z,30.50
2023-04-02T18:47:27.029Z,30.50
2023-04-02T18:50:03.519Z,30.40
2023-04-02T18:52:37.458Z,30.30
2023-04-02T18:55:11.048Z,30.30
2023-04-02T18:57:45.127Z,30.30
2023-04-02T19:00:27.833Z,30.30
2023-04-02T19:03:20.904Z,30.30
2023-04-02T19:06:13.479Z,30.30
2023-04-02T19:08:50.216Z,30.30
2023-04-02T19:11:25.342Z,30.30
2023-04-02T19:14:11.711Z,30.20
2023-04-02T19:17:02.395Z,30.20
2023-04-02T19:19:40.334Z,30.20
2023-04-02T19:22:42.568Z,30.20
2023-04-02T19:25:19.058Z,30.20
2023-04-02T19:28:17.220Z,30.20
2023-04-02T19:31:09.662Z,30.10
2023-04-02T19:34:18.796Z,30.10
2023-04-02T19:36:58.237Z,30.10
2023-04-02T19:39:53.491Z,30.10
2023-04-02T19:42:30.411Z,30.10
2023-04-02T19:45:01.970Z,30.10
2023-04-02T19:47:33.655Z,30.10
2023-04-02T19:50:06.371Z,30.10
2023-04-02T19:52:37.704Z,30.10
2023-04-02T19:55:09.648Z,30.10
2023-04-02T19:57:43.606Z,30.00
2023-04-02T20:00:21.606Z,30.00
2023-04-02T20:02:53.098Z,30.00
2023-04-02T20:05:25.077Z,29.90
2023-04-02T20:07:56.289Z,29.90
2023-04-02T20:10:27.483Z,29.90
2023-04-02T20:12:59.957Z,29.90
2023-04-02T20:15:31.569Z,29.90
2023-04-02T20:18:07.329Z,29.80
2023-04-02T20:20:38.928Z,29.90
2023-04-02T20:23:16.502Z,29.80
2023-04-02T20:25:56.051Z,29.80
2023-04-02T20:28:28.812Z,29.90
2023-04-02T20:31:17.505Z,29.90
2023-04-02T20:33:50.065Z,29.90
2023-04-02T20:36:21.398Z,29.90
2023-04-02T20:38:52.733Z,29.90
2023-04-02T20:41:26.305Z,29.90
2023-04-02T20:43:57.864Z,29.90
2023-04-02T20:46:29.233Z,29.90
2023-04-02T20:49:03.484Z,29.80
2023-04-02T20:51:35.714Z,29.80
2023-04-02T20:54:07.082Z,29.80
2023-04-02T20:56:39.348Z,29.80
2023-04-02T20:59:10.643Z,29.80
2023-04-02T21:01:42.196Z,29.80
2023-04-02T21:04:14.199Z,29.70
2023-04-02T21:06:45.986Z,29.70
2023-04-02T21:09:19.677Z,29.60
2023-04-02T21:11:51.138Z,29.60
2023-04-02T21:14:22.661Z,29.50
2023-04-02T21:16:53.920Z,29.50
2023-04-02T21:19:25.209Z,29.50
2023-04-02T21:21:57.844Z,29.50
2023-04-02T21:24:29.062Z,29.50
2023-04-02T21:27:00.365Z,29.50
2023-04-02T21:29:31.593Z,29.50
2023-04-02T21:32:08.431Z,29.40
2023-04-02T21:34:35.655Z,29.50
2023-04-02T21:37:07.157Z,29.40
2023-04-02T21:39:38.507Z,29.40
2023-04-02T21:42:09.721Z,29.40
2023-04-02T21:44:40.881Z,29.40
2023-04-02T21:47:12.439Z,29.40
2023-04-02T21:49:44.000Z,29.30
2023-04-02T21:52:15.861Z,29.30
2023-04-02T21:54:47.530Z,29.30
2023-04-02T21:57:19.226Z,29.30
2023-04-02T21:59:50.640Z,29.30
2023-04-02T22:02:21.989Z,29.30
2023-04-02T22:04:53.217Z,29.20
2023-04-02T22:07:24.383Z,29.30
2023-04-02T22:09:55.606Z,29.20
2023-04-02T22:12:26.738Z,29.10
2023-04-02T22:14:58.579Z,29.10
2023-04-02T22:17:29.863Z,29.10
2023-04-02T22:20:01.227Z,29.10
2023-04-02T22:22:32.458Z,29.00
2023-04-02T22:25:06.234Z,29.00
2023-04-02T22:27:37.541Z,29.00
2023-04-02T22:30:10.270Z,28.90
2023-04-02T22:32:41.967Z,28.90
2023-04-02T22:35:13.871Z,29.00
2023-04-02T22:37:45.375Z,29.00
2023-04-02T22:40:16.830Z,29.00
2023-04-02T22:42:49.041Z,29.00
2023-04-02T22:45:22.018Z,29.00
2023-04-02T22:47:53.513Z,29.00
2023-04-02T22:50:24.866Z,29.00
2023-04-02T22:52:56.179Z,29.00
2023-04-02T22:55:28.130Z,28.90
2023-04-02T22:57:59.253Z,28.90
2023-04-02T23:00:30.478Z,28.90
2023-04-02T23:03:01.803Z,28.90
2023-04-02T23:05:33.179Z,28.90
2023-04-02T23:08:04.522Z,28.90
2023-04-02T23:10:36.180Z,28.90
2023-04-02T23:13:07.754Z,28.80
2023-04-02T23:15:39.073Z,28.80
2023-04-02T23:18:10.854Z,28.80
2023-04-02T23:20:42.783Z,28.80
2023-04-02T23:23:13.915Z,28.80
2023-04-02T23:25:45.055Z,28.80
2023-04-02T23:28:16.868Z,28.80
2023-04-02T23:30:48.006Z,28.80
2023-04-02T23:33:19.155Z,28.80
2023-04-02T23:35:50.342Z,28.80
2023-04-02T23:38:21.545Z,28.80
2023-04-02T23:40:52.680Z,28.90
2023-04-02T23:43:23.845Z,28.90
2023-04-02T23:45:55.053Z,29.00
2023-04-02T23:48:26.383Z,29.00
2023-04-02T23:50:57.552Z,28.90
2023-04-02T23:53:28.898Z,28.90
2023-04-02T23:56:00.354Z,29.00
2023-04-02T23:58:31.594Z,29.00
